createdAt,value
2022-09-06T00:00:06.725Z,19.04
2022-09-06T00:02:37.689Z,19.14
2022-09-06T00:05:12.082Z,20.03
2022-09-06T00:07:47.596Z,20.54
2022-09-06T00:10:17.395Z,20.79
2022-09-06T00:12:50.078Z,20.95
2022-09-06T00:15:24.364Z,21.02
2022-09-06T00:18:01.021Z,21.15
2022-09-06T00:20:37.697Z,20.99
2022-09-06T00:23:12.050Z,19.80
2022-09-06T00:25:44.732Z,19.95
2022-09-06T00:28:17.347Z,19.98
2022-09-06T00:30:55.396Z,20.49
2022-09-06T00:33:28.089Z,20.36
2022-09-06T00:36:07.039Z,20.63
2022-09-06T00:38:39.010Z,20.78
2022-09-06T00:41:11.969Z,20.85
2022-09-06T00:44:01.882Z,20.17
2022-09-06T00:46:39.959Z,20.39
2022-09-06T00:49:16.141Z,20.68
2022-09-06T00:51:48.982Z,19.89
2022-09-06T00:54:19.575Z,19.24
2022-09-06T00:56:52.986Z,19.57
2022-09-06T00:59:25.888Z,20.07
2022-09-06T01:01:56.497Z,19.88
2022-09-06T01:04:34.514Z,20.13
2022-09-06T01:07:31.122Z,19.99
2022-09-06T01:10:06.337Z,19.58
2022-09-06T01:12:51.170Z,19.43
2022-09-06T01:15:33.585Z,19.37
2022-09-06T01:18:10.993Z,19.56
2022-09-06T01:20:53.462Z,19.85
2022-09-06T01:23:57.039Z,19.74
2022-09-06T01:26:42.302Z,19.99
2022-09-06T01:29:31.006Z,20.29
2022-09-06T01:32:27.153Z,20.45
2022-09-06T01:35:11.333Z,20.70
2022-09-06T01:37:40.770Z,20.74
2022-09-06T01:40:11.204Z,20.79
2022-09-06T01:42:40.958Z,20.79
2022-09-06T01:45:10.826Z,20.48
2022-09-06T01:47:59.077Z,20.64
2022-09-06T01:50:41.189Z,20.66
2022-09-06T01:53:42.524Z,20.63
2022-09-06T01:56:32.765Z,20.65
2022-09-06T01:59:14.952Z,20.24
2022-09-06T02:02:01.863Z,20.45
2022-09-06T02:04:35.693Z,20.44
2022-09-06T02:07:20.771Z,20.29
2022-09-06T02:09:53.808Z,20.31
2022-09-06T02:12:23.055Z,20.22
2022-09-06T02:14:59.894Z,20.15
2022-09-06T02:17:43.426Z,20.20
2022-09-06T02:20:16.905Z,20.26
2022-09-06T02:22:50.056Z,20.25
2022-09-06T02:25:25.242Z,20.15
2022-09-06T02:27:55.473Z,19.94
2022-09-06T02:30:26.316Z,19.75
2022-09-06T02:33:05.213Z,19.83
2022-09-06T02:35:33.007Z,19.71
2022-09-06T02:38:00.190Z,19.74
2022-09-06T02:40:27.379Z,19.71
2022-09-06T02:42:55.061Z,19.85
2022-09-06T02:45:22.169Z,19.84
2022-09-06T02:47:55.021Z,19.56
2022-09-06T02:50:24.370Z,19.23
2022-09-06T02:53:12.063Z,19.13
2022-09-06T02:55:46.980Z,19.03
2022-09-06T02:58:27.238Z,19.42
2022-09-06T03:01:00.887Z,19.56
2022-09-06T03:03:39.243Z,19.80
2022-09-06T03:06:14.367Z,19.85
2022-09-06T03:08:46.831Z,19.96
2022-09-06T03:11:14.918Z,19.73
2022-09-06T03:13:44.988Z,19.53
2022-09-06T03:16:34.917Z,19.54
2022-09-06T03:19:15.950Z,19.38
2022-09-06T03:21:47.220Z,18.91
2022-09-06T03:24:15.429Z,19.22
2022-09-06T03:26:45.057Z,19.30
2022-09-06T03:29:15.562Z,19.44
2022-09-06T03:31:47.042Z,19.25
2022-09-06T03:34:17.625Z,19.41
2022-09-06T03:36:45.223Z,19.52
2022-09-06T03:39:13.619Z,19.21
2022-09-06T03:41:43.915Z,19.25
2022-09-06T03:44:13.620Z,18.96
2022-09-06T03:46:49.271Z,19.13
2022-09-06T03:49:20.227Z,19.17
2022-09-06T03:51:53.032Z,19.22
2022-09-06T03:54:32.561Z,19.10
2022-09-06T03:57:05.609Z,19.30
2022-09-06T03:59:39.978Z,19.06
2022-09-06T04:02:09.848Z,19.09
2022-09-06T04:04:39.852Z,19.06
2022-09-06T04:07:16.846Z,19.11
2022-09-06T04:09:48.620Z,19.02
2022-09-06T04:12:23.595Z,18.84
2022-09-06T04:14:50.862Z,18.35
2022-09-06T04:17:19.867Z,18.20
2022-09-06T04:19:50.004Z,18.13
2022-09-06T04:22:20.916Z,18.19
2022-09-06T04:24:54.495Z,18.00
2022-09-06T04:27:25.571Z,18.32
2022-09-06T04:29:53.535Z,18.30
2022-09-06T04:32:20.802Z,18.32
2022-09-06T04:34:50.164Z,18.31
2022-09-06T04:37:21.324Z,18.03
2022-09-06T04:39:51.582Z,18.33
2022-09-06T04:42:22.257Z,18.27
2022-09-06T04:44:53.051Z,18.19
2022-09-06T04:47:29.055Z,18.25
2022-09-06T04:50:02.314Z,18.27
2022-09-06T04:52:32.826Z,18.22
2022-09-06T04:55:02.832Z,18.09
2022-09-06T04:57:33.376Z,18.02
2022-09-06T05:00:04.513Z,18.11
2022-09-06T05:02:32.171Z,18.13
2022-09-06T05:05:01.808Z,18.20
2022-09-06T05:07:31.835Z,18.16
2022-09-06T05:10:02.345Z,17.83
2022-09-06T05:12:32.093Z,17.97
2022-09-06T05:15:00.080Z,17.97
2022-09-06T05:17:27.250Z,17.86
2022-09-06T05:19:56.865Z,17.53
2022-09-06T05:22:26.787Z,17.67
2022-09-06T05:24:57.175Z,17.66
2022-09-06T05:27:25.179Z,17.73
2022-09-06T05:29:52.434Z,17.96
2022-09-06T05:32:19.997Z,18.04
2022-09-06T05:34:50.417Z,18.02
2022-09-06T05:37:22.737Z,17.99
2022-09-06T05:39:50.668Z,18.02
2022-09-06T05:42:20.864Z,18.01
2022-09-06T05:44:48.817Z,18.00
2022-09-06T05:47:16.206Z,17.93
2022-09-06T05:49:44.223Z,17.70
2022-09-06T05:52:18.486Z,17.68
2022-09-06T05:54:47.885Z,17.81
2022-09-06T05:57:15.066Z,17.51
2022-09-06T05:59:42.180Z,17.70
2022-09-06T06:02:09.411Z,17.83
2022-09-06T06:04:36.674Z,18.07
2022-09-06T06:07:03.797Z,18.22
2022-09-06T06:09:30.804Z,18.11
2022-09-06T06:11:57.894Z,18.04
2022-09-06T06:14:25.647Z,18.07
2022-09-06T06:16:52.891Z,18.06
2022-09-06T06:19:20.064Z,17.74
2022-09-06T06:21:47.209Z,18.02
2022-09-06T06:24:14.548Z,18.18
2022-09-06T06:26:41.645Z,18.21
2022-09-06T06:29:09.869Z,18.53
2022-09-06T06:31:39.196Z,18.71
2022-09-06T06:34:07.285Z,18.92
2022-09-06T06:36:37.702Z,18.96
2022-09-06T06:39:08.668Z,19.04
2022-09-06T06:41:36.305Z,18.91
2022-09-06T06:44:05.341Z,19.00
2022-09-06T06:46:38.684Z,19.09
2022-09-06T06:49:05.968Z,19.12
2022-09-06T06:51:36.307Z,19.41
2022-09-06T06:54:04.059Z,19.47
2022-09-06T06:56:34.699Z,19.64
2022-09-06T06:59:04.682Z,19.68
2022-09-06T07:01:33.761Z,19.68
2022-09-06T07:04:01.232Z,19.49
2022-09-06T07:09:22.584Z,20.05
2022-09-06T07:11:50.061Z,20.06
2022-09-06T07:14:18.385Z,20.29
2022-09-06T07:16:47.831Z,20.60
2022-09-06T07:22:11.802Z,20.99
2022-09-06T07:24:41.744Z,21.27
2022-09-06T07:29:58.581Z,21.27
2022-09-06T07:32:26.039Z,21.32
2022-09-06T07:34:53.470Z,21.47
2022-09-06T07:37:20.614Z,21.03
2022-09-06T07:39:47.806Z,21.21
2022-09-06T07:42:16.409Z,21.51
2022-09-06T07:44:43.501Z,22.13
2022-09-06T07:55:32.859Z,22.76
2022-09-06T07:58:00.082Z,22.96
2022-09-06T08:00:27.606Z,22.67
2022-09-06T08:02:54.770Z,22.62
2022-09-06T08:10:56.308Z,23.70
2022-09-06T08:33:52.676Z,24.96
2022-09-06T08:37:20.957Z,24.19
2022-09-06T09:02:15.422Z,25.73
2022-09-06T09:18:59.407Z,26.66
2022-09-06T09:39:37.519Z,27.37
2022-09-06T10:04:43.200Z,27.86
2022-09-06T10:08:04.939Z,28.03
2022-09-06T10:21:58.083Z,29.99
2022-09-06T10:39:25.876Z,29.49
2022-09-06T10:46:24.578Z,29.89
2022-09-06T11:18:04.972Z,31.10
2022-09-06T11:27:48.890Z,32.00
2022-09-06T11:37:53.838Z,31.07
2022-09-06T11:44:53.759Z,32.02
2022-09-06T11:48:07.041Z,32.54
2022-09-06T11:51:04.083Z,32.71
2022-09-06T11:57:53.159Z,32.38
2022-09-06T12:11:54.701Z,33.02
2022-09-06T12:26:04.180Z,32.95
2022-09-06T12:29:01.276Z,33.47
2022-09-06T13:03:27.347Z,33.96
2022-09-06T13:13:06.693Z,34.96
2022-09-06T13:26:58.889Z,34.90
2022-09-06T13:33:53.309Z,33.55
2022-09-06T13:45:02.331Z,35.58
2022-09-06T13:51:47.540Z,35.09
2022-09-06T13:55:05.305Z,35.02
2022-09-06T14:05:15.408Z,34.18
2022-09-06T14:31:14.927Z,32.01
2022-09-06T14:55:35.885Z,33.85
2022-09-06T15:09:47.006Z,33.96
2022-09-06T15:22:56.352Z,31.02
2022-09-06T15:25:36.351Z,33.65
2022-09-06T15:28:03.635Z,32.89
2022-09-06T15:30:30.760Z,34.04
2022-09-06T15:32:57.886Z,33.17
2022-09-06T15:35:25.040Z,34.35
2022-09-06T15:37:52.054Z,32.78
2022-09-06T15:40:29.490Z,31.51
2022-09-06T15:42:56.582Z,30.29
2022-09-06T15:45:23.696Z,30.16
2022-09-06T15:47:51.213Z,31.24
2022-09-06T15:50:34.419Z,31.64
2022-09-06T15:53:05.413Z,32.33
2022-09-06T15:55:50.718Z,31.67
2022-09-06T15:58:18.190Z,33.03
2022-09-06T16:00:45.304Z,31.33
2022-09-06T16:03:14.332Z,31.13
2022-09-06T16:08:29.559Z,33.80
2022-09-06T16:10:57.452Z,33.61
2022-09-06T16:13:26.295Z,33.30
2022-09-06T16:15:58.424Z,34.15
2022-09-06T16:18:29.167Z,34.59
2022-09-06T16:20:56.412Z,34.23
2022-09-06T16:23:23.703Z,34.02
2022-09-06T16:25:54.458Z,34.60
2022-09-06T16:28:21.605Z,35.44
2022-09-06T16:30:48.835Z,34.39
2022-09-06T16:33:16.285Z,32.85
2022-09-06T16:35:43.836Z,33.16
2022-09-06T16:38:10.961Z,33.41
2022-09-06T16:40:43.273Z,31.39
2022-09-06T16:43:10.465Z,33.03
2022-09-06T16:45:42.529Z,33.21
2022-09-06T16:48:09.887Z,33.72
2022-09-06T16:50:37.005Z,34.51
2022-09-06T16:53:04.108Z,34.34
2022-09-06T16:55:31.265Z,34.47
2022-09-06T16:57:58.533Z,33.30
2022-09-06T17:00:25.740Z,33.28
2022-09-06T17:02:53.085Z,32.64
2022-09-06T17:05:20.141Z,32.73
2022-09-06T17:07:47.457Z,31.82
2022-09-06T17:10:14.748Z,31.05
2022-09-06T17:12:41.962Z,30.05
2022-09-06T17:15:11.881Z,29.52
2022-09-06T17:17:39.227Z,29.38
2022-09-06T17:20:06.736Z,28.44
2022-09-06T17:22:33.861Z,28.20
2022-09-06T17:25:05.867Z,29.40
2022-09-06T17:27:33.419Z,28.17
2022-09-06T17:30:00.428Z,27.71
2022-09-06T17:32:27.874Z,28.57
2022-09-06T17:34:55.063Z,28.89
2022-09-06T17:37:23.339Z,28.27
2022-09-06T17:39:50.610Z,28.54
2022-09-06T17:42:17.856Z,28.22
2022-09-06T17:44:46.742Z,28.17
2022-09-06T17:47:14.351Z,28.84
2022-09-06T17:49:43.246Z,29.41
2022-09-06T17:52:11.038Z,29.23
2022-09-06T17:54:38.145Z,28.62
2022-09-06T17:57:05.411Z,28.71
2022-09-06T17:59:35.336Z,28.32
2022-09-06T18:02:06.133Z,28.31
2022-09-06T18:04:33.753Z,28.05
2022-09-06T18:07:01.015Z,28.81
2022-09-06T18:09:31.137Z,28.70
2022-09-06T18:11:58.876Z,28.14
2022-09-06T18:14:28.890Z,28.48
2022-09-06T18:16:58.856Z,28.34
2022-09-06T18:19:32.439Z,28.06
2022-09-06T18:22:12.932Z,28.40
2022-09-06T18:24:40.891Z,28.04
2022-09-06T18:27:20.631Z,27.64
2022-09-06T18:29:56.109Z,27.63
2022-09-06T18:32:35.267Z,27.56
2022-09-06T18:35:16.558Z,26.94
2022-09-06T18:37:48.608Z,26.57
2022-09-06T18:40:24.276Z,26.20
2022-09-06T18:43:00.036Z,26.43
2022-09-06T18:45:33.166Z,26.21
2022-09-06T18:48:00.421Z,26.07
2022-09-06T18:50:27.466Z,26.27
2022-09-06T18:52:59.653Z,26.67
2022-09-06T18:55:59.761Z,26.43
2022-09-06T18:58:36.146Z,26.78
2022-09-06T19:01:15.062Z,26.90
2022-09-06T19:03:42.819Z,27.13
2022-09-06T19:06:12.527Z,27.13
2022-09-06T19:08:40.177Z,26.54
2022-09-06T19:11:13.667Z,26.72
2022-09-06T19:13:42.081Z,26.82
2022-09-06T19:16:18.265Z,26.38
2022-09-06T19:18:45.436Z,24.63
2022-09-06T19:21:17.892Z,24.69
2022-09-06T19:23:58.457Z,24.32
2022-09-06T19:26:27.529Z,24.65
2022-09-06T19:28:58.773Z,24.65
2022-09-06T19:31:29.590Z,25.38
2022-09-06T19:33:57.193Z,25.18
2022-09-06T19:36:25.972Z,23.82
2022-09-06T19:39:03.972Z,24.26
2022-09-06T19:41:34.586Z,24.89
2022-09-06T19:44:03.861Z,25.18
2022-09-06T19:46:31.033Z,25.29
2022-09-06T19:49:04.047Z,25.08
2022-09-06T19:51:34.358Z,24.36
2022-09-06T19:54:01.633Z,23.95
2022-09-06T19:56:32.018Z,23.14
2022-09-06T19:59:07.529Z,23.14
2022-09-06T20:01:39.199Z,23.05
2022-09-06T20:04:12.248Z,23.27
2022-09-06T20:06:47.731Z,22.94
2022-09-06T20:09:18.114Z,24.12
2022-09-06T20:11:47.924Z,24.56
2022-09-06T20:14:15.226Z,24.73
2022-09-06T20:16:43.346Z,24.74
2022-09-06T20:19:12.322Z,24.83
2022-09-06T20:21:45.474Z,24.78
2022-09-06T20:24:12.692Z,24.32
2022-09-06T20:26:40.727Z,24.08
2022-09-06T20:29:11.274Z,24.08
2022-09-06T20:31:38.879Z,24.45
2022-09-06T20:34:07.301Z,24.33
2022-09-06T20:36:38.437Z,24.48
2022-09-06T20:39:05.976Z,24.39
2022-09-06T20:41:35.032Z,24.15
2022-09-06T20:44:02.400Z,23.85
2022-09-06T20:46:32.512Z,23.85
2022-09-06T20:49:04.426Z,23.84
2022-09-06T20:51:33.891Z,23.88
2022-09-06T20:54:02.496Z,24.02
2022-09-06T20:56:38.711Z,24.12
2022-09-06T20:59:11.061Z,24.19
2022-09-06T21:01:42.672Z,24.19
2022-09-06T21:04:11.063Z,24.08
2022-09-06T21:06:39.779Z,24.04
2022-09-06T21:09:13.506Z,24.07
2022-09-06T21:11:41.333Z,24.11
2022-09-06T21:14:09.559Z,24.10
2022-09-06T21:16:38.103Z,24.13
2022-09-06T21:19:09.094Z,24.00
2022-09-06T21:21:37.133Z,24.03
2022-09-06T21:24:06.132Z,23.83
2022-09-06T21:26:34.022Z,23.96
2022-09-06T21:29:01.037Z,23.96
2022-09-06T21:31:30.419Z,23.74
2022-09-06T21:33:59.632Z,23.83
2022-09-06T21:36:31.965Z,23.41
2022-09-06T21:39:05.527Z,23.44
2022-09-06T21:41:35.275Z,23.33
2022-09-06T21:44:03.839Z,23.14
2022-09-06T21:46:33.691Z,22.70
2022-09-06T21:49:04.564Z,22.90
2022-09-06T21:51:32.830Z,22.94
2022-09-06T21:54:03.709Z,22.93
2022-09-06T21:56:32.092Z,22.49
2022-09-06T21:58:59.422Z,22.44
2022-09-06T22:01:32.778Z,22.74
2022-09-06T22:04:00.854Z,22.90
2022-09-06T22:06:29.789Z,22.96
2022-09-06T22:08:59.161Z,23.03
2022-09-06T22:11:29.333Z,22.94
2022-09-06T22:14:02.012Z,22.49
2022-09-06T22:16:30.421Z,22.63
2022-09-06T22:18:57.605Z,22.72
2022-09-06T22:21:25.100Z,22.23
2022-09-06T22:24:01.517Z,21.39
2022-09-06T22:26:30.929Z,21.64
2022-09-06T22:29:00.254Z,21.51
2022-09-06T22:31:29.677Z,21.27
2022-09-06T22:33:58.855Z,21.57
2022-09-06T22:36:27.374Z,21.84
2022-09-06T22:38:57.827Z,22.13
2022-09-06T22:41:27.789Z,21.55
2022-09-06T22:43:55.380Z,21.83
2022-09-06T22:46:23.372Z,21.76
2022-09-06T22:48:50.732Z,21.61
2022-09-06T22:51:18.100Z,21.72
2022-09-06T22:53:45.300Z,21.84
2022-09-06T22:56:12.412Z,22.05
2022-09-06T22:58:39.584Z,22.17
2022-09-06T23:01:12.859Z,22.30
2022-09-06T23:03:43.595Z,22.35
2022-09-06T23:06:11.570Z,22.32
2022-09-06T23:08:40.293Z,22.37
2022-09-06T23:11:10.531Z,22.30
2022-09-06T23:13:38.482Z,22.33
2022-09-06T23:16:07.587Z,22.38
2022-09-06T23:18:35.066Z,22.32
2022-09-06T23:21:10.690Z,22.36
2022-09-06T23:23:38.600Z,22.35
2022-09-06T23:26:13.813Z,21.88
2022-09-06T23:28:44.655Z,21.77
2022-09-06T23:31:15.402Z,21.35
2022-09-06T23:33:42.969Z,21.19
2022-09-06T23:36:15.061Z,21.08
2022-09-06T23:38:46.415Z,20.59
2022-09-06T23:41:14.175Z,20.02
2022-09-06T23:43:43.511Z,19.94
2022-09-06T23:46:13.494Z,20.60
2022-09-06T23:48:42.135Z,20.68
2022-09-06T23:51:09.898Z,20.52
2022-09-06T23:53:40.452Z,20.90
2022-09-06T23:56:08.414Z,21.15
2022-09-06T23:58:36.264Z,21.21
